sensor_id;sensor_type;location;lat;lon;timestamp;pressure;altitude;pressure_sealevel;temperature;humidity
67373;BME280;54257;54.496;18.412;2022-11-15T00:01:16;100017.22;;;6.07;96.14
67373;BME280;54257;54.496;18.412;2022-11-15T00:03:45;100013.98;;;6.07;96.21
67373;BME280;54257;54.496;18.412;2022-11-15T00:06:12;100011.92;;;6.06;96.17
67373;BME280;54257;54.496;18.412;2022-11-15T00:08:40;100008.36;;;6.06;96.16
67373;BME280;54257;54.496;18.412;2022-11-15T00:11:10;100012.08;;;6.06;96.27
67373;BME280;54257;54.496;18.412;2022-11-15T00:13:38;100009.69;;;6.05;96.44
67373;BME280;54257;54.496;18.412;2022-11-15T00:16:05;100014.63;;;6.06;96.40
67373;BME280;54257;54.496;18.412;2022-11-15T00:18:32;100007.67;;;6.06;96.48
67373;BME280;54257;54.496;18.412;2022-11-15T00:21:07;100008.56;;;6.08;96.38
67373;BME280;54257;54.496;18.412;2022-11-15T00:23:35;100006.95;;;6.10;96.28
67373;BME280;54257;54.496;18.412;2022-11-15T00:26:02;100005.04;;;6.13;96.37
67373;BME280;54257;54.496;18.412;2022-11-15T00:28:30;99999.36;;;6.15;96.21
67373;BME280;54257;54.496;18.412;2022-11-15T00:31:01;100003.38;;;6.19;96.16
67373;BME280;54257;54.496;18.412;2022-11-15T00:33:28;99998.92;;;6.23;96.08
67373;BME280;54257;54.496;18.412;2022-11-15T00:36:06;99998.73;;;6.23;96.00
67373;BME280;54257;54.496;18.412;2022-11-15T00:38:37;99995.65;;;6.21;95.91
67373;BME280;54257;54.496;18.412;2022-11-15T00:41:06;99997.80;;;6.20;95.97
67373;BME280;54257;54.496;18.412;2022-11-15T00:43:33;100003.09;;;6.21;96.07
67373;BME280;54257;54.496;18.412;2022-11-15T00:46:00;99996.52;;;6.22;96.04
67373;BME280;54257;54.496;18.412;2022-11-15T00:48:29;99992.13;;;6.22;96.03
67373;BME280;54257;54.496;18.412;2022-11-15T00:50:56;99987.70;;;6.22;96.15
67373;BME280;54257;54.496;18.412;2022-11-15T00:53:22;99981.36;;;6.20;96.35
67373;BME280;54257;54.496;18.412;2022-11-15T00:55:49;99984.27;;;6.15;96.47
67373;BME280;54257;54.496;18.412;2022-11-15T00:58:16;99984.81;;;6.11;96.48
67373;BME280;54257;54.496;18.412;2022-11-15T01:00:43;99987.48;;;6.10;96.54
67373;BME280;54257;54.496;18.412;2022-11-15T01:03:13;99982.45;;;6.07;96.79
67373;BME280;54257;54.496;18.412;2022-11-15T01:05:40;99977.60;;;6.04;96.94
67373;BME280;54257;54.496;18.412;2022-11-15T01:08:12;99971.73;;;6.02;96.78
67373;BME280;54257;54.496;18.412;2022-11-15T01:10:40;99972.76;;;6.02;96.79
67373;BME280;54257;54.496;18.412;2022-11-15T01:13:10;99970.27;;;6.03;97.02
67373;BME280;54257;54.496;18.412;2022-11-15T01:15:44;99964.86;;;6.03;96.95
67373;BME280;54257;54.496;18.412;2022-11-15T01:18:11;99964.58;;;6.05;96.97
67373;BME280;54257;54.496;18.412;2022-11-15T01:20:42;99960.05;;;6.07;97.23
67373;BME280;54257;54.496;18.412;2022-11-15T01:23:10;99956.31;;;6.07;97.57
67373;BME280;54257;54.496;18.412;2022-11-15T01:25:37;99948.13;;;6.05;97.48
67373;BME280;54257;54.496;18.412;2022-11-15T01:28:04;99946.11;;;6.05;97.40
67373;BME280;54257;54.496;18.412;2022-11-15T01:30:31;99942.92;;;6.07;97.41
67373;BME280;54257;54.496;18.412;2022-11-15T01:32:59;99942.06;;;6.06;97.47
67373;BME280;54257;54.496;18.412;2022-11-15T01:35:26;99936.95;;;6.05;97.47
67373;BME280;54257;54.496;18.412;2022-11-15T01:37:53;99932.20;;;6.05;97.40
67373;BME280;54257;54.496;18.412;2022-11-15T01:40:20;99929.01;;;6.06;97.44
67373;BME280;54257;54.496;18.412;2022-11-15T01:42:47;99920.55;;;6.07;97.40
67373;BME280;54257;54.496;18.412;2022-11-15T01:45:15;99920.95;;;6.09;97.41
67373;BME280;54257;54.496;18.412;2022-11-15T01:47:46;99914.75;;;6.11;97.45
67373;BME280;54257;54.496;18.412;2022-11-15T01:50:20;99913.29;;;6.12;97.43
67373;BME280;54257;54.496;18.412;2022-11-15T01:52:48;99911.63;;;6.13;97.40
67373;BME280;54257;54.496;18.412;2022-11-15T01:55:20;99907.75;;;6.14;97.26
67373;BME280;54257;54.496;18.412;2022-11-15T01:57:50;99907.45;;;6.16;97.36
67373;BME280;54257;54.496;18.412;2022-11-15T02:00:19;99901.98;;;6.14;97.15
67373;BME280;54257;54.496;18.412;2022-11-15T02:02:47;99896.94;;;6.16;97.14
67373;BME280;54257;54.496;18.412;2022-11-15T02:05:14;99894.55;;;6.15;97.21
67373;BME280;54257;54.496;18.412;2022-11-15T02:07:41;99887.80;;;6.16;97.13
67373;BME280;54257;54.496;18.412;2022-11-15T02:10:13;99882.88;;;6.16;97.31
67373;BME280;54257;54.496;18.412;2022-11-15T02:12:41;99876.88;;;6.14;97.37
67373;BME280;54257;54.496;18.412;2022-11-15T02:15:09;99874.61;;;6.12;97.52
67373;BME280;54257;54.496;18.412;2022-11-15T02:17:51;99873.27;;;6.12;97.56
67373;BME280;54257;54.496;18.412;2022-11-15T02:20:52;99871.50;;;6.11;97.78
67373;BME280;54257;54.496;18.412;2022-11-15T02:23:54;99868.54;;;6.08;97.72
67373;BME280;54257;54.496;18.412;2022-11-15T02:29:07;99860.98;;;6.05;97.87
67373;BME280;54257;54.496;18.412;2022-11-15T02:31:45;99861.66;;;6.05;97.79
67373;BME280;54257;54.496;18.412;2022-11-15T02:37:26;99861.10;;;6.09;97.79
67373;BME280;54257;54.496;18.412;2022-11-15T02:40:11;99861.49;;;6.10;97.86
67373;BME280;54257;54.496;18.412;2022-11-15T02:42:50;99856.60;;;6.11;97.82
67373;BME280;54257;54.496;18.412;2022-11-15T02:45:47;99858.33;;;6.12;97.96
67373;BME280;54257;54.496;18.412;2022-11-15T02:48:17;99853.08;;;6.12;97.92
67373;BME280;54257;54.496;18.412;2022-11-15T02:50:45;99855.31;;;6.13;97.92
67373;BME280;54257;54.496;18.412;2022-11-15T02:53:17;99856.05;;;6.15;97.87
67373;BME280;54257;54.496;18.412;2022-11-15T02:55:46;99854.92;;;6.17;97.90
67373;BME280;54257;54.496;18.412;2022-11-15T03:03:58;99844.95;;;6.07;97.47
67373;BME280;54257;54.496;18.412;2022-11-15T03:06:44;99838.96;;;6.06;97.53
67373;BME280;54257;54.496;18.412;2022-11-15T03:09:59;99838.91;;;6.04;97.72
67373;BME280;54257;54.496;18.412;2022-11-15T03:12:42;99831.04;;;6.02;97.72
67373;BME280;54257;54.496;18.412;2022-11-15T03:15:20;99828.83;;;6.02;97.83
67373;BME280;54257;54.496;18.412;2022-11-15T03:17:55;99826.09;;;6.01;97.81
67373;BME280;54257;54.496;18.412;2022-11-15T03:20:26;99826.86;;;5.98;97.75
67373;BME280;54257;54.496;18.412;2022-11-15T03:22:56;99826.96;;;5.96;97.78
67373;BME280;54257;54.496;18.412;2022-11-15T03:25:29;99825.61;;;5.92;98.15
67373;BME280;54257;54.496;18.412;2022-11-15T03:28:01;99823.95;;;5.88;98.16
67373;BME280;54257;54.496;18.412;2022-11-15T03:30:32;99823.69;;;5.85;98.17
67373;BME280;54257;54.496;18.412;2022-11-15T03:33:04;99819.73;;;5.84;98.17
67373;BME280;54257;54.496;18.412;2022-11-15T03:35:43;99818.69;;;5.83;98.26
67373;BME280;54257;54.496;18.412;2022-11-15T03:38:24;99812.27;;;5.83;98.16
67373;BME280;54257;54.496;18.412;2022-11-15T03:41:04;99814.51;;;5.85;98.12
67373;BME280;54257;54.496;18.412;2022-11-15T03:46:02;99806.34;;;5.89;98.01
67373;BME280;54257;54.496;18.412;2022-11-15T03:48:40;99808.02;;;5.93;98.04
67373;BME280;54257;54.496;18.412;2022-11-15T03:51:10;99808.19;;;5.98;98.02
67373;BME280;54257;54.496;18.412;2022-11-15T03:53:37;99811.16;;;6.01;98.00
67373;BME280;54257;54.496;18.412;2022-11-15T03:56:04;99811.41;;;6.03;97.87
67373;BME280;54257;54.496;18.412;2022-11-15T03:58:31;99807.92;;;6.05;97.78
67373;BME280;54257;54.496;18.412;2022-11-15T04:00:58;99807.77;;;6.06;97.82
67373;BME280;54257;54.496;18.412;2022-11-15T04:03:28;99810.06;;;6.03;97.74
67373;BME280;54257;54.496;18.412;2022-11-15T04:05:56;99808.28;;;6.01;97.73
67373;BME280;54257;54.496;18.412;2022-11-15T04:08:23;99810.99;;;6.01;97.81
67373;BME280;54257;54.496;18.412;2022-11-15T04:10:51;99810.32;;;6.01;98.07
67373;BME280;54257;54.496;18.412;2022-11-15T04:13:19;99810.60;;;5.99;98.06
67373;BME280;54257;54.496;18.412;2022-11-15T04:15:46;99803.75;;;5.97;98.06
67373;BME280;54257;54.496;18.412;2022-11-15T04:18:13;99800.26;;;5.94;98.21
67373;BME280;54257;54.496;18.412;2022-11-15T04:20:40;99797.92;;;5.90;98.31
67373;BME280;54257;54.496;18.412;2022-11-15T04:23:25;99800.15;;;5.86;98.32
67373;BME280;54257;54.496;18.412;2022-11-15T04:26:15;99800.38;;;5.83;98.29
67373;BME280;54257;54.496;18.412;2022-11-15T04:28:43;99804.41;;;5.81;98.49
67373;BME280;54257;54.496;18.412;2022-11-15T04:31:28;99802.33;;;5.80;98.49
67373;BME280;54257;54.496;18.412;2022-11-15T04:33:55;99804.46;;;5.78;98.64
67373;BME280;54257;54.496;18.412;2022-11-15T04:36:22;99809.31;;;5.77;98.73
67373;BME280;54257;54.496;18.412;2022-11-15T04:39:09;99805.74;;;5.76;98.66
67373;BME280;54257;54.496;18.412;2022-11-15T04:41:36;99807.41;;;5.75;98.80
67373;BME280;54257;54.496;18.412;2022-11-15T04:44:03;99801.45;;;5.74;98.82
67373;BME280;54257;54.496;18.412;2022-11-15T04:46:29;99796.02;;;5.74;98.94
67373;BME280;54257;54.496;18.412;2022-11-15T04:48:56;99792.27;;;5.73;99.10
67373;BME280;54257;54.496;18.412;2022-11-15T04:51:23;99786.34;;;5.73;98.84
67373;BME280;54257;54.496;18.412;2022-11-15T04:53:50;99785.72;;;5.75;98.85
67373;BME280;54257;54.496;18.412;2022-11-15T04:56:17;99785.56;;;5.75;98.82
67373;BME280;54257;54.496;18.412;2022-11-15T04:58:44;99789.80;;;5.75;98.84
67373;BME280;54257;54.496;18.412;2022-11-15T05:01:13;99790.29;;;5.75;98.84
67373;BME280;54257;54.496;18.412;2022-11-15T05:03:43;99788.44;;;5.75;98.84
67373;BME280;54257;54.496;18.412;2022-11-15T05:06:30;99790.44;;;5.74;98.89
67373;BME280;54257;54.496;18.412;2022-11-15T05:08:57;99787.21;;;5.74;98.83
67373;BME280;54257;54.496;18.412;2022-11-15T05:11:24;99785.67;;;5.74;98.79
67373;BME280;54257;54.496;18.412;2022-11-15T05:13:52;99782.13;;;5.74;98.83
67373;BME280;54257;54.496;18.412;2022-11-15T05:16:19;99779.41;;;5.74;98.82
67373;BME280;54257;54.496;18.412;2022-11-15T05:18:46;99784.35;;;5.75;98.90
67373;BME280;54257;54.496;18.412;2022-11-15T05:21:14;99783.56;;;5.77;98.83
67373;BME280;54257;54.496;18.412;2022-11-15T05:23:41;99785.16;;;5.78;98.81
67373;BME280;54257;54.496;18.412;2022-11-15T05:26:09;99788.13;;;5.81;98.77
67373;BME280;54257;54.496;18.412;2022-11-15T05:28:37;99784.67;;;5.84;98.75
67373;BME280;54257;54.496;18.412;2022-11-15T05:31:07;99784.12;;;5.88;98.66
67373;BME280;54257;54.496;18.412;2022-11-15T05:33:39;99784.38;;;5.90;98.56
67373;BME280;54257;54.496;18.412;2022-11-15T05:36:31;99789.64;;;5.90;98.42
67373;BME280;54257;54.496;18.412;2022-11-15T05:39:00;99785.95;;;5.86;97.98
67373;BME280;54257;54.496;18.412;2022-11-15T05:41:44;99790.00;;;5.86;98.08
67373;BME280;54257;54.496;18.412;2022-11-15T05:44:15;99786.52;;;5.88;98.06
67373;BME280;54257;54.496;18.412;2022-11-15T05:46:45;99789.79;;;5.90;98.14
67373;BME280;54257;54.496;18.412;2022-11-15T05:49:15;99791.00;;;5.91;98.16
67373;BME280;54257;54.496;18.412;2022-11-15T05:51:46;99789.05;;;5.88;98.01
67373;BME280;54257;54.496;18.412;2022-11-15T05:54:16;99789.96;;;5.90;98.00
67373;BME280;54257;54.496;18.412;2022-11-15T05:56:43;99787.11;;;5.91;98.20
67373;BME280;54257;54.496;18.412;2022-11-15T05:59:11;99787.23;;;5.89;98.14
67373;BME280;54257;54.496;18.412;2022-11-15T06:01:39;99783.52;;;5.90;98.16
67373;BME280;54257;54.496;18.412;2022-11-15T06:04:13;99780.09;;;5.94;98.29
67373;BME280;54257;54.496;18.412;2022-11-15T06:06:41;99786.16;;;5.98;98.30
67373;BME280;54257;54.496;18.412;2022-11-15T06:09:11;99784.42;;;6.02;98.20
67373;BME280;54257;54.496;18.412;2022-11-15T06:11:41;99789.79;;;6.05;98.09
67373;BME280;54257;54.496;18.412;2022-11-15T06:14:09;99793.45;;;6.09;97.93
67373;BME280;54257;54.496;18.412;2022-11-15T06:16:37;99794.04;;;6.11;97.74
67373;BME280;54257;54.496;18.412;2022-11-15T06:19:10;99795.52;;;6.15;97.69
67373;BME280;54257;54.496;18.412;2022-11-15T06:21:41;99793.28;;;6.14;97.54
67373;BME280;54257;54.496;18.412;2022-11-15T06:24:12;99797.00;;;6.19;97.40
67373;BME280;54257;54.496;18.412;2022-11-15T06:26:42;99790.80;;;6.22;97.25
67373;BME280;54257;54.496;18.412;2022-11-15T06:29:13;99793.71;;;6.23;97.17
67373;BME280;54257;54.496;18.412;2022-11-15T06:31:40;99787.93;;;6.22;96.97
67373;BME280;54257;54.496;18.412;2022-11-15T06:34:08;99793.26;;;6.24;96.76
67373;BME280;54257;54.496;18.412;2022-11-15T06:36:36;99798.21;;;6.26;96.63
67373;BME280;54257;54.496;18.412;2022-11-15T06:39:04;99803.17;;;6.27;96.40
67373;BME280;54257;54.496;18.412;2022-11-15T06:41:39;99802.30;;;6.26;96.20
67373;BME280;54257;54.496;18.412;2022-11-15T06:44:09;99800.89;;;6.24;96.07
67373;BME280;54257;54.496;18.412;2022-11-15T06:46:42;99796.46;;;6.24;95.97
67373;BME280;54257;54.496;18.412;2022-11-15T06:49:14;99796.32;;;6.25;96.15
67373;BME280;54257;54.496;18.412;2022-11-15T06:51:45;99799.00;;;6.29;96.08
67373;BME280;54257;54.496;18.412;2022-11-15T06:54:12;99796.89;;;6.32;96.20
67373;BME280;54257;54.496;18.412;2022-11-15T06:56:39;99795.59;;;6.34;96.08
67373;BME280;54257;54.496;18.412;2022-11-15T06:59:07;99795.59;;;6.34;95.77
67373;BME280;54257;54.496;18.412;2022-11-15T07:01:34;99793.70;;;6.33;95.49
67373;BME280;54257;54.496;18.412;2022-11-15T07:04:01;99796.02;;;6.31;95.25
67373;BME280;54257;54.496;18.412;2022-11-15T07:06:28;99799.00;;;6.29;95.15
67373;BME280;54257;54.496;18.412;2022-11-15T07:08:55;99802.55;;;6.28;95.25
67373;BME280;54257;54.496;18.412;2022-11-15T07:11:22;99801.20;;;6.29;95.24
67373;BME280;54257;54.496;18.412;2022-11-15T07:13:49;99800.00;;;6.28;95.10
67373;BME280;54257;54.496;18.412;2022-11-15T07:16:16;99800.01;;;6.28;95.12
67373;BME280;54257;54.496;18.412;2022-11-15T07:18:43;99797.64;;;6.28;95.13
67373;BME280;54257;54.496;18.412;2022-11-15T07:21:10;99795.64;;;6.30;95.15
67373;BME280;54257;54.496;18.412;2022-11-15T07:23:38;99794.80;;;6.30;95.08
67373;BME280;54257;54.496;18.412;2022-11-15T07:26:07;99796.51;;;6.30;95.09
67373;BME280;54257;54.496;18.412;2022-11-15T07:28:35;99794.19;;;6.32;95.08
67373;BME280;54257;54.496;18.412;2022-11-15T07:31:04;99795.08;;;6.34;95.08
67373;BME280;54257;54.496;18.412;2022-11-15T07:33:31;99796.34;;;6.36;95.11
67373;BME280;54257;54.496;18.412;2022-11-15T07:35:59;99795.71;;;6.38;95.07
67373;BME280;54257;54.496;18.412;2022-11-15T07:38:28;99800.80;;;6.38;95.01
67373;BME280;54257;54.496;18.412;2022-11-15T07:40:58;99797.58;;;6.38;94.96
67373;BME280;54257;54.496;18.412;2022-11-15T07:43:29;99794.74;;;6.39;94.98
67373;BME280;54257;54.496;18.412;2022-11-15T07:45:56;99796.31;;;6.40;94.85
67373;BME280;54257;54.496;18.412;2022-11-15T07:48:23;99797.30;;;6.40;94.77
67373;BME280;54257;54.496;18.412;2022-11-15T07:50:50;99797.48;;;6.40;94.85
67373;BME280;54257;54.496;18.412;2022-11-15T07:53:18;99800.60;;;6.42;94.86
67373;BME280;54257;54.496;18.412;2022-11-15T07:55:45;99799.90;;;6.42;94.76
67373;BME280;54257;54.496;18.412;2022-11-15T07:58:14;99799.23;;;6.42;94.63
67373;BME280;54257;54.496;18.412;2022-11-15T08:00:41;99795.67;;;6.42;94.65
67373;BME280;54257;54.496;18.412;2022-11-15T08:03:13;99795.95;;;6.45;94.84
67373;BME280;54257;54.496;18.412;2022-11-15T08:05:42;99791.43;;;6.48;94.88
67373;BME280;54257;54.496;18.412;2022-11-15T08:08:11;99787.75;;;6.50;94.80
67373;BME280;54257;54.496;18.412;2022-11-15T08:10:39;99794.05;;;6.51;94.65
67373;BME280;54257;54.496;18.412;2022-11-15T08:13:10;99795.83;;;6.53;94.57
67373;BME280;54257;54.496;18.412;2022-11-15T08:15:37;99794.29;;;6.52;94.48
67373;BME280;54257;54.496;18.412;2022-11-15T08:18:11;99798.23;;;6.53;94.44
67373;BME280;54257;54.496;18.412;2022-11-15T08:20:39;99802.33;;;6.54;94.49
67373;BME280;54257;54.496;18.412;2022-11-15T08:23:07;99803.55;;;6.56;94.47
67373;BME280;54257;54.496;18.412;2022-11-15T08:25:35;99802.57;;;6.57;94.56
67373;BME280;54257;54.496;18.412;2022-11-15T08:28:06;99806.45;;;6.56;94.20
67373;BME280;54257;54.496;18.412;2022-11-15T08:30:36;99802.20;;;6.56;94.17
67373;BME280;54257;54.496;18.412;2022-11-15T08:33:04;99802.40;;;6.57;94.09
67373;BME280;54257;54.496;18.412;2022-11-15T08:35:31;99798.43;;;6.55;93.88
67373;BME280;54257;54.496;18.412;2022-11-15T08:37:58;99798.55;;;6.53;94.02
67373;BME280;54257;54.496;18.412;2022-11-15T08:40:25;99797.02;;;6.53;94.21
67373;BME280;54257;54.496;18.412;2022-11-15T08:42:54;99801.48;;;6.54;94.41
67373;BME280;54257;54.496;18.412;2022-11-15T08:45:21;99795.40;;;6.56;94.42
67373;BME280;54257;54.496;18.412;2022-11-15T08:47:48;99790.16;;;6.56;94.39
67373;BME280;54257;54.496;18.412;2022-11-15T08:50:15;99784.42;;;6.57;94.33
67373;BME280;54257;54.496;18.412;2022-11-15T08:52:43;99787.84;;;6.58;94.14
67373;BME280;54257;54.496;18.412;2022-11-15T08:55:10;99788.29;;;6.57;94.12
67373;BME280;54257;54.496;18.412;2022-11-15T08:57:37;99790.50;;;6.56;93.95
67373;BME280;54257;54.496;18.412;2022-11-15T09:00:05;99785.00;;;6.53;93.97
67373;BME280;54257;54.496;18.412;2022-11-15T09:02:32;99788.27;;;6.50;93.87
67373;BME280;54257;54.496;18.412;2022-11-15T09:04:59;99779.52;;;6.46;93.95
67373;BME280;54257;54.496;18.412;2022-11-15T09:07:26;99779.70;;;6.41;93.98
67373;BME280;54257;54.496;18.412;2022-11-15T09:09:53;99779.83;;;6.40;94.11
67373;BME280;54257;54.496;18.412;2022-11-15T09:12:20;99784.16;;;6.37;94.27
67373;BME280;54257;54.496;18.412;2022-11-15T09:14:48;99787.42;;;6.33;94.33
67373;BME280;54257;54.496;18.412;2022-11-15T09:17:15;99790.77;;;6.31;94.32
67373;BME280;54257;54.496;18.412;2022-11-15T09:19:42;99790.92;;;6.31;94.44
67373;BME280;54257;54.496;18.412;2022-11-15T09:22:09;99793.00;;;6.32;94.63
67373;BME280;54257;54.496;18.412;2022-11-15T09:24:36;99791.96;;;6.32;94.73
67373;BME280;54257;54.496;18.412;2022-11-15T09:27:03;99796.88;;;6.32;94.70
67373;BME280;54257;54.496;18.412;2022-11-15T09:29:30;99792.29;;;6.31;94.69
67373;BME280;54257;54.496;18.412;2022-11-15T09:31:58;99788.20;;;6.31;94.70
67373;BME280;54257;54.496;18.412;2022-11-15T09:34:25;99787.02;;;6.30;94.66
67373;BME280;54257;54.496;18.412;2022-11-15T09:36:52;99785.88;;;6.33;94.92
67373;BME280;54257;54.496;18.412;2022-11-15T09:39:19;99789.14;;;6.34;94.79
67373;BME280;54257;54.496;18.412;2022-11-15T09:50:51;99785.69;;;6.32;94.90
67373;BME280;54257;54.496;18.412;2022-11-15T09:53:31;99784.84;;;6.32;94.93
67373;BME280;54257;54.496;18.412;2022-11-15T09:56:01;99783.82;;;6.31;95.06
67373;BME280;54257;54.496;18.412;2022-11-15T09:59:08;99783.55;;;6.34;95.07
67373;BME280;54257;54.496;18.412;2022-11-15T10:04:09;99771.53;;;6.45;95.47
67373;BME280;54257;54.496;18.412;2022-11-15T10:06:40;99776.08;;;6.51;95.40
67373;BME280;54257;54.496;18.412;2022-11-15T10:09:26;99772.45;;;6.54;95.30
67373;BME280;54257;54.496;18.412;2022-11-15T10:11:56;99769.60;;;6.55;95.35
67373;BME280;54257;54.496;18.412;2022-11-15T10:14:26;99767.98;;;6.58;95.14
67373;BME280;54257;54.496;18.412;2022-11-15T10:19:55;99761.54;;;6.64;94.75
67373;BME280;54257;54.496;18.412;2022-11-15T10:27:40;99746.77;;;6.75;94.92
67373;BME280;54257;54.496;18.412;2022-11-15T10:30:15;99745.98;;;6.77;94.88
67373;BME280;54257;54.496;18.412;2022-11-15T10:32:45;99750.30;;;6.80;94.89
67373;BME280;54257;54.496;18.412;2022-11-15T10:35:25;99745.45;;;6.83;94.89
67373;BME280;54257;54.496;18.412;2022-11-15T10:38:08;99743.31;;;6.86;94.78
67373;BME280;54257;54.496;18.412;2022-11-15T10:40:37;99749.67;;;6.88;94.78
67373;BME280;54257;54.496;18.412;2022-11-15T10:43:13;99747.34;;;6.91;94.87
67373;BME280;54257;54.496;18.412;2022-11-15T10:45:41;99744.73;;;6.93;94.64
67373;BME280;54257;54.496;18.412;2022-11-15T10:50:43;99745.63;;;6.95;94.51
67373;BME280;54257;54.496;18.412;2022-11-15T10:53:24;99739.98;;;6.94;94.15
67373;BME280;54257;54.496;18.412;2022-11-15T10:55:54;99740.86;;;6.89;93.90
67373;BME280;54257;54.496;18.412;2022-11-15T10:58:38;99740.82;;;6.87;94.14
67373;BME280;54257;54.496;18.412;2022-11-15T11:01:19;99747.75;;;6.86;94.17
67373;BME280;54257;54.496;18.412;2022-11-15T11:04:03;99749.16;;;6.83;94.03
67373;BME280;54257;54.496;18.412;2022-11-15T11:06:31;99745.67;;;6.79;94.04
67373;BME280;54257;54.496;18.412;2022-11-15T11:09:23;99749.08;;;6.73;94.04
67373;BME280;54257;54.496;18.412;2022-11-15T11:11:51;99751.21;;;6.70;94.14
67373;BME280;54257;54.496;18.412;2022-11-15T11:14:24;99753.15;;;6.67;94.14
67373;BME280;54257;54.496;18.412;2022-11-15T11:25:38;99737.11;;;6.64;94.34
67373;BME280;54257;54.496;18.412;2022-11-15T11:31:13;99731.93;;;6.61;94.34
67373;BME280;54257;54.496;18.412;2022-11-15T11:34:00;99730.90;;;6.60;94.46
67373;BME280;54257;54.496;18.412;2022-11-15T11:36:53;99725.80;;;6.60;94.56
67373;BME280;54257;54.496;18.412;2022-11-15T11:42:36;99712.55;;;6.65;94.89
67373;BME280;54257;54.496;18.412;2022-11-15T11:47:47;99704.88;;;6.70;94.74
67373;BME280;54257;54.496;18.412;2022-11-15T11:50:23;99713.14;;;6.75;95.02
67373;BME280;54257;54.496;18.412;2022-11-15T11:53:02;99719.05;;;6.80;95.03
67373;BME280;54257;54.496;18.412;2022-11-15T11:55:38;99714.27;;;6.85;95.10
67373;BME280;54257;54.496;18.412;2022-11-15T11:58:20;99711.64;;;6.89;94.93
67373;BME280;54257;54.496;18.412;2022-11-15T12:00:55;99706.70;;;6.93;94.93
67373;BME280;54257;54.496;18.412;2022-11-15T12:03:30;99709.10;;;6.94;94.56
67373;BME280;54257;54.496;18.412;2022-11-15T12:06:04;99702.47;;;6.94;94.31
67373;BME280;54257;54.496;18.412;2022-11-15T12:08:41;99701.13;;;6.94;94.19
67373;BME280;54257;54.496;18.412;2022-11-15T12:14:04;99697.02;;;6.93;93.98
67373;BME280;54257;54.496;18.412;2022-11-15T12:16:33;99694.33;;;6.94;94.04
67373;BME280;54257;54.496;18.412;2022-11-15T12:19:07;99696.51;;;6.93;93.79
67373;BME280;54257;54.496;18.412;2022-11-15T12:24:46;99701.09;;;6.93;94.11
67373;BME280;54257;54.496;18.412;2022-11-15T12:28:25;99696.52;;;6.94;94.13
67373;BME280;54257;54.496;18.412;2022-11-15T12:30:25;99694.30;;;6.93;94.10
67373;BME280;54257;54.496;18.412;2022-11-15T12:32:59;99696.64;;;6.92;93.88
67373;BME280;54257;54.496;18.412;2022-11-15T12:35:41;99696.61;;;6.91;93.89
67373;BME280;54257;54.496;18.412;2022-11-15T12:38:11;99698.34;;;6.91;94.01
67373;BME280;54257;54.496;18.412;2022-11-15T12:43:44;99697.23;;;6.89;94.10
67373;BME280;54257;54.496;18.412;2022-11-15T12:46:19;99697.27;;;6.91;94.25
67373;BME280;54257;54.496;18.412;2022-11-15T12:48:54;99692.10;;;6.93;94.41
67373;BME280;54257;54.496;18.412;2022-11-15T12:52:03;99693.17;;;6.96;94.35
67373;BME280;54257;54.496;18.412;2022-11-15T12:59:57;99695.69;;;6.94;94.19
67373;BME280;54257;54.496;18.412;2022-11-15T13:02:37;99692.67;;;6.96;94.38
67373;BME280;54257;54.496;18.412;2022-11-15T13:10:33;99683.20;;;7.04;94.42
67373;BME280;54257;54.496;18.412;2022-11-15T13:13:03;99681.02;;;7.05;94.34
67373;BME280;54257;54.496;18.412;2022-11-15T13:17:57;99678.34;;;7.07;94.40
67373;BME280;54257;54.496;18.412;2022-11-15T13:20:28;99673.77;;;7.08;94.22
67373;BME280;54257;54.496;18.412;2022-11-15T13:23:01;99671.60;;;7.09;94.23
67373;BME280;54257;54.496;18.412;2022-11-15T13:33:18;99667.34;;;7.01;94.13
67373;BME280;54257;54.496;18.412;2022-11-15T13:35:50;99668.08;;;6.97;94.14
67373;BME280;54257;54.496;18.412;2022-11-15T13:40:53;99661.92;;;6.83;94.17
67373;BME280;54257;54.496;18.412;2022-11-15T13:46:30;99657.96;;;6.81;94.62
67373;BME280;54257;54.496;18.412;2022-11-15T13:49:09;99660.59;;;6.77;94.57
67373;BME280;54257;54.496;18.412;2022-11-15T13:56:45;99667.16;;;6.75;94.90
67373;BME280;54257;54.496;18.412;2022-11-15T13:59:44;99664.33;;;6.77;94.90
67373;BME280;54257;54.496;18.412;2022-11-15T14:02:16;99657.83;;;6.75;94.76
67373;BME280;54257;54.496;18.412;2022-11-15T14:04:50;99661.89;;;6.75;94.84
67373;BME280;54257;54.496;18.412;2022-11-15T14:07:24;99660.77;;;6.77;94.94
67373;BME280;54257;54.496;18.412;2022-11-15T14:09:52;99660.08;;;6.77;95.08
67373;BME280;54257;54.496;18.412;2022-11-15T14:12:26;99660.52;;;6.75;94.92
67373;BME280;54257;54.496;18.412;2022-11-15T14:14:54;99658.39;;;6.71;95.26
67373;BME280;54257;54.496;18.412;2022-11-15T14:19:59;99652.05;;;6.62;95.12
67373;BME280;54257;54.496;18.412;2022-11-15T14:22:30;99646.24;;;6.61;95.20
67373;BME280;54257;54.496;18.412;2022-11-15T14:25:25;99646.58;;;6.60;95.40
67373;BME280;54257;54.496;18.412;2022-11-15T14:28:28;99654.11;;;6.58;95.55
67373;BME280;54257;54.496;18.412;2022-11-15T14:30:58;99651.02;;;6.50;95.72
67373;BME280;54257;54.496;18.412;2022-11-15T14:33:34;99656.90;;;6.48;95.71
67373;BME280;54257;54.496;18.412;2022-11-15T14:36:16;99657.21;;;6.47;95.96
67373;BME280;54257;54.496;18.412;2022-11-15T14:38:46;99655.20;;;6.48;95.90
67373;BME280;54257;54.496;18.412;2022-11-15T14:41:24;99651.83;;;6.48;96.03
67373;BME280;54257;54.496;18.412;2022-11-15T14:43:53;99652.81;;;6.47;96.28
67373;BME280;54257;54.496;18.412;2022-11-15T14:46:19;99649.73;;;6.40;96.41
67373;BME280;54257;54.496;18.412;2022-11-15T14:48:46;99653.95;;;6.33;96.88
67373;BME280;54257;54.496;18.412;2022-11-15T14:51:16;99653.26;;;6.27;97.19
67373;BME280;54257;54.496;18.412;2022-11-15T14:53:46;99655.00;;;6.23;97.15
67373;BME280;54257;54.496;18.412;2022-11-15T14:56:14;99656.66;;;6.21;97.23
67373;BME280;54257;54.496;18.412;2022-11-15T14:58:42;99659.64;;;6.19;97.22
67373;BME280;54257;54.496;18.412;2022-11-15T15:01:17;99660.70;;;6.14;97.70